Time;durP1;ratioP1;P1;durP2;ratioP2;P2;SDS_P1;SDS_P2;PMS_P1;PMS_P2;Temp;Humidity;BMP_temperature;BMP_pressure;BME280_temperature;BME280_humidity;BME280_pressure;Samples;Min_cycle;Max_cycle;Signal;HPM_P1;HPM_P2
2022/01/30 00:02:09;;;;;;;;;;;;;;;4.72;100.00;97399.59;1583694;90;20177;-85
2022/01/30 00:04:35;;;;;;;;;;;;;;;4.71;100.00;97390.14;1584085;90;24885;-86
2022/01/30 00:07:06;;;;;;;;;;;;;;;4.74;100.00;97399.05;1581721;90;22023;-85
2022/01/30 00:09:32;;;;;;;;;;;;;;;4.76;100.00;97395.88;1583237;90;25999;-85
2022/01/30 00:12:02;;;;;;;;;;;;;;;4.79;100.00;97408.66;1590929;90;24478;-85
2022/01/30 00:14:29;;;;;;;;;;;;;;;4.80;100.00;97403.35;1582142;90;20260;-85
2022/01/30 00:17:19;;;;;;;;;;;;;;;4.82;100.00;97410.58;1583490;89;26012;-85
2022/01/30 00:19:34;;;;;;;;;;;;;;;4.83;100.00;97403.64;1599496;88;22121;-85
2022/01/30 00:22:11;;;;;;;;;;;;;;;4.85;100.00;97400.49;1582934;90;26004;-85
2022/01/30 00:24:37;;;;;;;;;;;;;;;4.87;100.00;97394.73;1573814;90;24536;-85
2022/01/30 00:26:50;;;;;;;;;;;;;;;4.88;100.00;97401.58;1592573;89;20343;-85
2022/01/30 00:29:16;;;;;;;;;;;;;;;4.89;100.00;97388.53;1598402;89;26005;-85
2022/01/30 00:31:43;;;;;;;;;;;;;;;4.90;100.00;97401.03;1592954;89;21826;-85
2022/01/30 00:34:09;;;;;;;;;;;;;;;4.91;100.00;97392.33;1592372;88;26253;-85
2022/01/30 00:36:35;;;;;;;;;;;;;;;4.90;100.00;97391.50;1588069;89;20285;-84
2022/01/30 00:39:01;;;;;;;;;;;;;;;4.92;100.00;97391.38;1586467;89;20295;-84
2022/01/30 00:41:27;;;;;;;;;;;;;;;4.93;100.00;97400.36;1594347;89;24996;-84
2022/01/30 00:43:53;;;;;;;;;;;;;;;4.94;100.00;97403.33;1597199;89;22040;-84
2022/01/30 00:46:19;;;;;;;;;;;;;;;4.97;100.00;97398.39;1588983;88;26117;-84
2022/01/30 00:48:45;;;;;;;;;;;;;;;4.99;100.00;97399.97;1586385;89;24560;-84
2022/01/30 00:51:11;;;;;;;;;;;;;;;4.99;100.00;97405.16;1592761;89;20244;-84
2022/01/30 00:53:37;;;;;;;;;;;;;;;5.01;100.00;97395.53;1586124;89;24976;-85
2022/01/30 00:56:03;;;;;;;;;;;;;;;5.05;100.00;97399.59;1589941;89;21962;-85
2022/01/30 00:58:29;;;;;;;;;;;;;;;5.07;100.00;97380.51;1585516;89;25970;-85
2022/01/30 01:00:56;;;;;;;;;;;;;;;5.10;100.00;97373.35;1581272;88;24397;-85
2022/01/30 01:03:24;;;;;;;;;;;;;;;5.14;100.00;97368.33;1590439;89;20211;-86
2022/01/30 01:05:51;;;;;;;;;;;;;;;5.20;100.00;97353.66;1589399;89;25394;-85
2022/01/30 01:08:27;;;;;;;;;;;;;;;5.26;100.00;97350.67;1593652;89;22073;-86
2022/01/30 01:10:51;;;;;;;;;;;;;;;5.33;100.00;97364.08;1587616;89;26100;-87
2022/01/30 01:13:27;;;;;;;;;;;;;;;5.37;100.00;97362.47;1581843;89;24698;-87
2022/01/30 01:24:02;;;;;;;;;;;;;;;5.43;100.00;97375.04;1592779;89;26253;-87
2022/01/30 01:26:26;;;;;;;;;;;;;;;5.42;100.00;97373.84;1580042;90;25118;-85
2022/01/30 01:28:53;;;;;;;;;;;;;;;5.39;100.00;97381.38;1582224;89;20229;-85
2022/01/30 01:31:19;;;;;;;;;;;;;;;5.35;100.00;97364.32;1573544;90;24962;-85
2022/01/30 01:34:03;;;;;;;;;;;;;;;5.32;100.00;97383.16;1598543;89;22149;-85
2022/01/30 01:36:16;;;;;;;;;;;;;;;5.26;100.00;97392.63;1600444;88;26240;-85
2022/01/30 01:38:42;;;;;;;;;;;;;;;5.23;100.00;97422.67;1592840;88;24794;-85
2022/01/30 01:41:09;;;;;;;;;;;;;;;5.17;100.00;97410.94;1592607;89;20240;-85
2022/01/30 01:43:36;;;;;;;;;;;;;;;5.14;100.00;97408.52;1598862;88;25061;-85
2022/01/30 01:46:12;;;;;;;;;;;;;;;5.13;100.00;97408.64;1593031;89;22055;-85
2022/01/30 01:48:35;;;;;;;;;;;;;;;5.10;100.00;97416.14;1600667;87;26032;-85
2022/01/30 01:51:14;;;;;;;;;;;;;;;5.07;100.00;97408.57;1589366;89;24481;-85
2022/01/30 01:53:33;;;;;;;;;;;;;;;5.06;100.00;97404.30;1599233;89;20231;-86
2022/01/30 01:56:01;;;;;;;;;;;;;;;5.05;100.00;97402.17;1599624;88;20522;-85
2022/01/30 01:58:27;;;;;;;;;;;;;;;5.11;100.00;97394.47;1600919;89;22075;-85
2022/01/30 02:00:53;;;;;;;;;;;;;;;5.14;100.00;97405.92;1604471;88;26206;-85
2022/01/30 02:03:22;;;;;;;;;;;;;;;5.14;100.00;97404.63;1578458;90;24406;-85
2022/01/30 02:05:52;;;;;;;;;;;;;;;5.14;100.00;97381.75;1582937;90;20306;-85
2022/01/30 02:08:32;;;;;;;;;;;;;;;5.22;100.00;97387.29;1597853;88;25623;-86
2022/01/30 02:11:00;;;;;;;;;;;;;;;5.24;100.00;97377.16;1601791;88;22603;-85
2022/01/30 02:24:24;;;;;;;;;;;;;;;5.29;100.00;97350.45;1579070;90;22050;-85
2022/01/30 02:26:45;;;;;;;;;;;;;;;5.32;100.00;97359.81;1577415;89;26700;-85
2022/01/30 02:29:12;;;;;;;;;;;;;;;5.33;100.00;97354.53;1596741;89;24510;-85
2022/01/30 02:31:40;;;;;;;;;;;;;;;5.33;100.00;97347.22;1589674;89;20474;-85
2022/01/30 02:34:07;;;;;;;;;;;;;;;5.33;100.00;97348.52;1568766;90;25825;-85
2022/01/30 02:36:44;;;;;;;;;;;;;;;5.31;100.00;97343.88;1581501;89;22079;-85
2022/01/30 02:39:09;;;;;;;;;;;;;;;5.34;100.00;97342.39;1578193;90;26253;-85
2022/01/30 02:41:35;;;;;;;;;;;;;;;5.35;100.00;97346.63;1583677;90;24497;-85
2022/01/30 02:44:13;;;;;;;;;;;;;;;5.34;100.00;97345.83;1576295;90;20237;-85
2022/01/30 02:46:34;;;;;;;;;;;;;;;5.34;100.00;97341.09;1578082;90;25058;-85
2022/01/30 02:49:12;;;;;;;;;;;;;;;5.35;100.00;97346.63;1584789;89;22124;-84
2022/01/30 02:51:34;;;;;;;;;;;;;;;5.33;100.00;97345.45;1579542;90;26043;-84
2022/01/30 02:54:03;;;;;;;;;;;;;;;5.33;100.00;97349.80;1584529;89;25071;-85
2022/01/30 02:56:25;;;;;;;;;;;;;;;5.34;100.00;97337.20;1580968;90;20226;-84
2022/01/30 02:58:51;;;;;;;;;;;;;;;5.36;100.00;97336.16;1581920;90;25142;-85
2022/01/30 03:01:20;;;;;;;;;;;;;;;5.37;100.00;97339.13;1572253;90;22004;-84
2022/01/30 03:03:50;;;;;;;;;;;;;;;5.38;100.00;97345.98;1581839;89;26087;-85
2022/01/30 03:06:16;;;;;;;;;;;;;;;5.39;100.00;97335.14;1582445;89;24469;-84
2022/01/30 03:08:42;;;;;;;;;;;;;;;5.42;100.00;97328.44;1578072;90;20212;-84
2022/01/30 03:11:08;;;;;;;;;;;;;;;5.40;100.00;97325.93;1579745;89;25053;-85
2022/01/30 03:13:42;;;;;;;;;;;;;;;5.41;100.00;97326.30;1591443;89;22823;-84
2022/01/30 03:16:08;;;;;;;;;;;;;;;5.41;100.00;97315.92;1549486;91;25910;-84
2022/01/30 03:18:37;;;;;;;;;;;;;;;5.45;100.00;97308.78;1591287;89;24374;-85
2022/01/30 03:21:04;;;;;;;;;;;;;;;5.47;100.00;97303.01;1593584;88;20482;-85
2022/01/30 03:23:36;;;;;;;;;;;;;;;5.48;100.00;97305.51;1548232;90;21198;-84
2022/01/30 03:26:00;;;;;;;;;;;;;;;5.48;100.00;97309.41;1596233;87;22038;-85
2022/01/30 03:28:26;;;;;;;;;;;;;;;5.48;100.00;97305.51;1597874;88;26727;-85
2022/01/30 03:31:01;;;;;;;;;;;;;;;5.48;100.00;97296.42;1581994;89;24516;-85
2022/01/30 03:33:21;;;;;;;;;;;;;;;5.50;100.00;97298.09;1597049;87;20250;-84
2022/01/30 03:35:47;;;;;;;;;;;;;;;5.53;100.00;97296.11;1570355;90;25174;-84
2022/01/30 03:38:14;;;;;;;;;;;;;;;5.53;100.00;97294.81;1593781;89;21933;-84
2022/01/30 03:40:40;;;;;;;;;;;;;;;5.52;100.00;97297.50;1599598;88;25692;-85
2022/01/30 03:43:06;;;;;;;;;;;;;;;5.53;100.00;97306.48;1596326;88;24534;-84
2022/01/30 03:45:33;;;;;;;;;;;;;;;5.51;100.00;97301.05;1591018;89;20295;-84
2022/01/30 03:47:59;;;;;;;;;;;;;;;5.47;100.00;97303.01;1594421;88;25021;-85
2022/01/30 03:50:25;;;;;;;;;;;;;;;5.44;100.00;97295.44;1595640;88;21951;-85
2022/01/30 03:52:52;;;;;;;;;;;;;;;5.41;100.00;97308.14;1595062;88;26872;-85
2022/01/30 03:55:18;;;;;;;;;;;;;;;5.38;100.00;97308.36;1595109;88;24439;-85
2022/01/30 03:57:47;;;;;;;;;;;;;;;5.35;100.00;97312.44;1566791;90;20237;-84
2022/01/30 04:00:13;;;;;;;;;;;;;;;5.32;100.00;97301.45;1577404;89;25143;-84
2022/01/30 04:02:39;;;;;;;;;;;;;;;5.27;100.00;97308.24;1587747;89;21993;-84
2022/01/30 04:05:06;;;;;;;;;;;;;;;5.21;100.00;97298.73;1592076;88;25950;-85
2022/01/30 04:07:32;;;;;;;;;;;;;;;5.15;100.00;97286.17;1593842;88;24573;-85
2022/01/30 04:09:58;;;;;;;;;;;;;;;5.09;100.00;97296.95;1587949;88;20290;-85
2022/01/30 04:12:24;;;;;;;;;;;;;;;5.09;100.00;97309.91;1581518;88;25049;-84
2022/01/30 04:14:51;;;;;;;;;;;;;;;5.08;100.00;97299.17;1573759;88;22046;-85
2022/01/30 04:17:19;;;;;;;;;;;;;;;5.04;100.00;97292.07;1584555;88;25995;-85
2022/01/30 04:19:46;;;;;;;;;;;;;;;5.03;100.00;97291.70;1578789;89;24557;-85
2022/01/30 04:22:12;;;;;;;;;;;;;;;5.01;100.00;97292.28;1584590;89;20290;-85
2022/01/30 04:24:40;;;;;;;;;;;;;;;5.02;100.00;97287.44;1559067;89;21201;-85
2022/01/30 04:27:06;;;;;;;;;;;;;;;5.03;100.00;97291.70;1577698;89;22011;-85
2022/01/30 04:29:32;;;;;;;;;;;;;;;5.03;100.00;97297.72;1569275;89;25740;-85
2022/01/30 04:31:59;;;;;;;;;;;;;;;5.00;100.00;97308.77;1580128;88;24447;-85
2022/01/30 04:34:27;;;;;;;;;;;;;;;4.94;100.00;97302.22;1589266;89;20477;-84
2022/01/30 04:37:49;;;;;;;;;;;;;;;4.97;100.00;97308.95;1577661;89;24962;-84
2022/01/30 04:40:06;;;;;;;;;;;;;;;4.93;100.00;97299.72;1587842;89;22006;-84
2022/01/30 04:42:24;;;;;;;;;;;;;;;4.91;100.00;97303.70;1566860;90;26035;-84
2022/01/30 04:53:11;;;;;;;;;;;;;;;4.76;100.00;97277.48;1590567;89;22034;-84
2022/01/30 04:56:06;;;;;;;;;;;;;;;4.75;100.00;97282.77;1589334;88;26997;-85
2022/01/30 04:58:03;;;;;;;;;;;;;;;4.77;100.00;97291.28;1594553;89;24778;-84
2022/01/30 05:03:32;;;;;;;;;;;;;;;4.79;100.00;97293.32;1579474;89;25023;-84
2022/01/30 05:08:16;;;;;;;;;;;;;;;4.80;100.00;97306.66;1588698;89;26212;-84
2022/01/30 05:10:42;;;;;;;;;;;;;;;4.78;100.00;97296.84;1584797;89;24509;-84
2022/01/30 05:13:13;;;;;;;;;;;;;;;4.80;100.00;97297.58;1588361;89;20506;-84
2022/01/30 05:15:38;;;;;;;;;;;;;;;4.79;100.00;97296.75;1585234;89;24824;-84
2022/01/30 05:18:05;;;;;;;;;;;;;;;4.77;100.00;97301.19;1583686;89;23402;-84
2022/01/30 05:20:32;;;;;;;;;;;;;;;4.76;100.00;97298.69;1585104;89;26035;-84
2022/01/30 05:22:59;;;;;;;;;;;;;;;4.74;100.00;97301.40;1576521;89;24519;-84
2022/01/30 05:25:25;;;;;;;;;;;;;;;4.74;100.00;97318.24;1578989;89;20323;-84
2022/01/30 05:27:51;;;;;;;;;;;;;;;4.72;100.00;97317.96;1570781;90;25068;-84
2022/01/30 05:30:17;;;;;;;;;;;;;;;4.66;100.00;97306.23;1572640;90;22082;-84
2022/01/30 05:32:44;;;;;;;;;;;;;;;4.68;100.00;97309.56;1591972;88;25947;-84
2022/01/30 05:35:16;;;;;;;;;;;;;;;4.67;100.00;97303.17;1583040;89;24497;-84
2022/01/30 05:37:42;;;;;;;;;;;;;;;4.68;100.00;97293.18;1590843;88;20474;-84
2022/01/30 05:40:08;;;;;;;;;;;;;;;4.70;100.00;97304.26;1562912;90;25032;-85
2022/01/30 05:42:36;;;;;;;;;;;;;;;4.70;100.00;97302.96;1577108;89;21950;-85
2022/01/30 05:45:21;;;;;;;;;;;;;;;4.70;100.00;97292.59;1570714;90;26255;-85
2022/01/30 05:47:53;;;;;;;;;;;;;;;4.71;100.00;97290.38;1576243;90;25086;-84
2022/01/30 05:50:16;;;;;;;;;;;;;;;4.71;100.00;97291.21;1577983;89;20227;-85
2022/01/30 05:52:42;;;;;;;;;;;;;;;4.72;100.00;97282.52;1578572;89;25158;-85
2022/01/30 05:55:08;;;;;;;;;;;;;;;4.73;100.00;97275.11;1589263;88;22057;-85
2022/01/30 05:57:34;;;;;;;;;;;;;;;4.70;100.00;97274.00;1586216;89;26060;-85
2022/01/30 06:00:01;;;;;;;;;;;;;;;4.68;100.00;97288.00;1569556;90;24569;-85
2022/01/30 06:02:28;;;;;;;;;;;;;;;4.64;100.00;97300.30;1586931;89;20227;-85
2022/01/30 06:04:54;;;;;;;;;;;;;;;4.61;100.00;97312.17;1587942;88;24973;-85
2022/01/30 06:07:30;;;;;;;;;;;;;;;4.57;100.00;97340.05;1580460;89;22151;-85
2022/01/30 06:09:57;;;;;;;;;;;;;;;4.50;100.00;97401.39;1578071;89;26764;-85
2022/01/30 06:12:23;;;;;;;;;;;;;;;4.27;100.00;97409.28;1576488;90;24522;-86
2022/01/30 06:14:51;;;;;;;;;;;;;;;3.92;100.00;97370.01;1574792;89;20445;-86
2022/01/30 06:17:17;;;;;;;;;;;;;;;3.60;100.00;97377.56;1574761;89;25063;-86
2022/01/30 06:19:43;;;;;;;;;;;;;;;3.36;100.00;97331.98;1583278;90;21958;-86
2022/01/30 06:22:09;;;;;;;;;;;;;;;3.25;100.00;97330.48;1585322;89;26104;-86
2022/01/30 06:24:35;;;;;;;;;;;;;;;3.19;100.00;97314.86;1585424;88;24391;-86
2022/01/30 06:27:06;;;;;;;;;;;;;;;3.13;100.00;97303.58;1585503;89;20260;-85
2022/01/30 06:29:36;;;;;;;;;;;;;;;3.12;100.00;97285.57;1590160;88;25586;-86
2022/01/30 06:32:00;;;;;;;;;;;;;;;3.12;100.00;97268.77;1590342;89;23231;-85
2022/01/30 06:34:28;;;;;;;;;;;;;;;3.10;100.00;97268.05;1588415;88;26642;-85
2022/01/30 06:36:54;;;;;;;;;;;;;;;3.10;100.00;97278.39;1592746;88;25272;-85
2022/01/30 06:39:21;;;;;;;;;;;;;;;3.10;100.00;97271.47;1589774;89;20272;-86
2022/01/30 06:41:47;;;;;;;;;;;;;;;3.12;100.00;97259.27;1587702;89;24934;-86
2022/01/30 06:44:16;;;;;;;;;;;;;;;3.15;100.00;97261.69;1588130;89;21983;-86
2022/01/30 06:46:42;;;;;;;;;;;;;;;3.16;100.00;97253.02;1586808;88;26115;-86
2022/01/30 06:49:09;;;;;;;;;;;;;;;3.17;100.00;97269.33;1589726;88;24542;-86
2022/01/30 06:51:35;;;;;;;;;;;;;;;3.19;100.00;97259.73;1594156;89;20455;-85
2022/01/30 06:54:03;;;;;;;;;;;;;;;3.22;100.00;97278.47;1590027;89;24966;-86
2022/01/30 06:56:29;;;;;;;;;;;;;;;3.24;100.00;97253.84;1586948;89;21978;-85
2022/01/30 06:58:56;;;;;;;;;;;;;;;3.27;100.00;97254.47;1588895;89;26100;-84
2022/01/30 07:01:26;;;;;;;;;;;;;;;3.32;100.00;97261.52;1586913;89;25189;-85
2022/01/30 07:03:52;;;;;;;;;;;;;;;3.36;100.00;97259.58;1591607;88;20319;-84
2022/01/30 07:06:18;;;;;;;;;;;;;;;3.41;100.00;97258.00;1587276;89;25130;-84
2022/01/30 07:08:45;;;;;;;;;;;;;;;3.43;100.00;97246.66;1591831;88;21828;-84
2022/01/30 07:11:11;;;;;;;;;;;;;;;3.48;100.00;97251.09;1584385;89;26223;-83
2022/01/30 07:13:37;;;;;;;;;;;;;;;3.51;100.00;97252.64;1591717;89;24504;-83
2022/01/30 07:16:03;;;;;;;;;;;;;;;3.52;100.00;97248.67;1587620;89;20488;-83
2022/01/30 07:18:29;;;;;;;;;;;;;;;3.53;100.00;97248.22;1587088;89;24951;-83
2022/01/30 07:20:55;;;;;;;;;;;;;;;3.55;100.00;97234.25;1590622;89;22073;-83
2022/01/30 07:23:21;;;;;;;;;;;;;;;3.59;100.00;97234.92;1592698;89;25991;-83
2022/01/30 07:25:48;;;;;;;;;;;;;;;3.61;100.00;97242.94;1589912;89;24677;-83
2022/01/30 07:28:18;;;;;;;;;;;;;;;3.61;100.00;97223.53;1620027;88;20186;-85
2022/01/30 07:30:49;;;;;;;;;;;;;;;3.58;100.00;97231.50;1595502;88;24981;-85
2022/01/30 07:33:15;;;;;;;;;;;;;;;3.58;100.00;97231.95;1597812;88;22563;-84
2022/01/30 07:35:42;;;;;;;;;;;;;;;3.56;100.00;97224.28;1594356;88;25966;-85
2022/01/30 07:38:09;;;;;;;;;;;;;;;3.56;100.00;97235.92;1602217;88;24414;-85
2022/01/30 07:40:35;;;;;;;;;;;;;;;3.55;100.00;97203.67;1594257;89;20262;-85
2022/01/30 07:43:09;;;;;;;;;;;;;;;3.52;100.00;97231.03;1596237;89;24993;-85
2022/01/30 07:45:37;;;;;;;;;;;;;;;3.52;100.00;97233.62;1594477;89;21957;-85
2022/01/30 07:48:05;;;;;;;;;;;;;;;3.50;100.00;97224.66;1578629;90;26093;-85
2022/01/30 07:50:31;;;;;;;;;;;;;;;3.51;100.00;97239.25;1596109;88;24412;-85
2022/01/30 07:52:57;;;;;;;;;;;;;;;3.50;100.00;97249.68;1600714;88;20427;-85
2022/01/30 07:55:23;;;;;;;;;;;;;;;3.52;100.00;97241.37;1602474;89;25026;-85
2022/01/30 07:57:49;;;;;;;;;;;;;;;3.52;100.00;97259.02;1602323;89;21984;-85
2022/01/30 08:00:15;;;;;;;;;;;;;;;3.55;100.00;97264.00;1600355;89;21219;-86
2022/01/30 08:02:41;;;;;;;;;;;;;;;3.49;100.00;97241.09;1601482;88;24486;-84
2022/01/30 08:05:08;;;;;;;;;;;;;;;3.60;100.00;97252.91;1604603;88;20262;-84
2022/01/30 08:07:35;;;;;;;;;;;;;;;3.64;100.00;97263.46;1606563;88;24960;-84
2022/01/30 08:10:01;;;;;;;;;;;;;;;3.67;100.00;97251.63;1601015;89;22631;-84
2022/01/30 08:12:28;;;;;;;;;;;;;;;3.71;100.00;97255.67;1599800;89;26194;-84
2022/01/30 08:14:54;;;;;;;;;;;;;;;3.72;100.00;97228.05;1604241;89;24626;-84
2022/01/30 08:17:23;;;;;;;;;;;;;;;3.74;100.00;97236.56;1606729;89;20277;-84
2022/01/30 08:19:51;;;;;;;;;;;;;;;3.76;100.00;97232.13;1600960;88;25226;-84
2022/01/30 08:22:17;;;;;;;;;;;;;;;3.80;100.00;97237.48;1601728;89;22042;-85
2022/01/30 08:24:43;;;;;;;;;;;;;;;3.81;100.00;97217.61;1598038;89;26702;-85
2022/01/30 08:27:09;;;;;;;;;;;;;;;3.81;100.00;97213.27;1587506;89;24413;-85
2022/01/30 08:29:35;;;;;;;;;;;;;;;3.82;100.00;97224.45;1589695;89;20481;-84
2022/01/30 08:32:01;;;;;;;;;;;;;;;3.85;100.00;97211.31;1563751;89;25078;-84
2022/01/30 08:34:27;;;;;;;;;;;;;;;3.84;100.00;97229.88;1569336;89;21965;-84
2022/01/30 08:36:53;;;;;;;;;;;;;;;3.83;100.00;97227.38;1574600;89;26007;-84
2022/01/30 08:39:19;;;;;;;;;;;;;;;3.82;100.00;97218.78;1578181;89;24384;-84
2022/01/30 08:41:45;;;;;;;;;;;;;;;3.79;100.00;97221.58;1583223;89;20333;-84
2022/01/30 08:44:12;;;;;;;;;;;;;;;3.80;100.00;97238.77;1571625;89;24992;-84
2022/01/30 08:46:38;;;;;;;;;;;;;;;3.77;100.00;97230.72;1586633;89;22828;-85
2022/01/30 08:49:04;;;;;;;;;;;;;;;3.77;100.00;97237.19;1612757;87;26137;-83
2022/01/30 08:51:30;;;;;;;;;;;;;;;3.76;100.00;97230.84;1579973;89;24531;-84
2022/01/30 08:53:59;;;;;;;;;;;;;;;3.73;100.00;97231.84;1581976;89;20244;-84
2022/01/30 08:56:25;;;;;;;;;;;;;;;3.76;100.00;97236.02;1581910;89;25054;-83
2022/01/30 08:58:52;;;;;;;;;;;;;;;3.78;100.00;97232.39;1596487;89;21961;-84
2022/01/30 09:01:20;;;;;;;;;;;;;;;3.83;100.00;97237.27;1590385;89;27004;-84
2022/01/30 09:03:47;;;;;;;;;;;;;;;3.88;100.00;97249.92;1583983;89;24183;-84
2022/01/30 09:06:14;;;;;;;;;;;;;;;3.92;100.00;97248.83;1577325;89;20211;-83
2022/01/30 09:08:40;;;;;;;;;;;;;;;3.95;100.00;97270.16;1580399;89;24947;-84
2022/01/30 09:11:06;;;;;;;;;;;;;;;3.97;100.00;97273.95;1591004;89;22077;-84
2022/01/30 09:13:38;;;;;;;;;;;;;;;3.97;100.00;97321.38;1587192;89;26347;-83
2022/01/30 09:16:04;;;;;;;;;;;;;;;3.98;100.00;97307.98;1581767;89;24470;-84
2022/01/30 09:18:37;;;;;;;;;;;;;;;3.94;100.00;97307.78;1591860;87;20187;-84
2022/01/30 09:21:02;;;;;;;;;;;;;;;3.81;100.00;97296.07;1595425;89;25088;-84
2022/01/30 09:23:28;;;;;;;;;;;;;;;3.64;100.00;97332.02;1577732;89;22029;-85
2022/01/30 09:25:54;;;;;;;;;;;;;;;3.54;100.00;97287.39;1571554;89;26672;-84
2022/01/30 09:28:21;;;;;;;;;;;;;;;3.43;100.00;97334.58;1552908;91;24441;-85
2022/01/30 09:30:52;;;;;;;;;;;;;;;3.33;100.00;97332.14;1558256;91;20216;-84
2022/01/30 09:33:22;;;;;;;;;;;;;;;3.29;100.00;97313.39;1559672;91;25038;-84
2022/01/30 09:35:49;;;;;;;;;;;;;;;3.30;100.00;97320.70;1559091;90;22573;-85
2022/01/30 09:38:15;;;;;;;;;;;;;;;3.34;100.00;97334.64;1565054;90;26172;-85
2022/01/30 09:40:41;;;;;;;;;;;;;;;3.39;100.00;97320.14;1555963;91;24538;-85
2022/01/30 09:43:08;;;;;;;;;;;;;;;3.42;100.00;97312.22;1556365;91;20340;-85
2022/01/30 09:45:35;;;;;;;;;;;;;;;3.42;100.00;97308.34;1552482;90;25017;-85
2022/01/30 09:48:02;;;;;;;;;;;;;;;3.42;100.00;97325.16;1547717;91;21982;-85
2022/01/30 09:50:30;;;;;;;;;;;;;;;3.44;100.00;97319.91;1536008;92;26804;-85
2022/01/30 09:52:57;;;;;;;;;;;;;;;3.46;100.00;97327.92;1559788;91;24501;-85
2022/01/30 09:55:23;;;;;;;;;;;;;;;3.46;100.00;97309.82;1549697;92;20256;-85
2022/01/30 09:57:49;;;;;;;;;;;;;;;3.46;100.00;97294.30;1551509;92;24964;-85
2022/01/30 10:00:16;;;;;;;;;;;;;;;3.47;100.00;97308.06;1548049;91;22071;-85
2022/01/30 10:02:43;;;;;;;;;;;;;;;3.49;100.00;97299.77;1548583;92;26222;-85
2022/01/30 10:05:14;;;;;;;;;;;;;;;3.52;100.00;97279.72;1549858;91;24464;-85
2022/01/30 10:07:42;;;;;;;;;;;;;;;3.56;100.00;97296.70;1555330;90;20312;-85
2022/01/30 10:10:17;;;;;;;;;;;;;;;3.62;100.00;97283.41;1546993;91;25781;-85
2022/01/30 10:13:00;;;;;;;;;;;;;;;3.67;100.00;97271.48;1545988;92;22164;-84
2022/01/30 10:15:26;;;;;;;;;;;;;;;3.74;100.00;97281.84;1516569;93;26671;-85
2022/01/30 10:17:52;;;;;;;;;;;;;;;3.81;100.00;97279.71;1536003;92;24519;-84
2022/01/30 10:20:20;;;;;;;;;;;;;;;3.88;100.00;97249.92;1543812;91;20255;-84
2022/01/30 10:22:57;;;;;;;;;;;;;;;3.95;100.00;97258.98;1553950;92;25084;-85
2022/01/30 10:25:24;;;;;;;;;;;;;;;4.03;100.00;97265.82;1553988;89;22782;-85
2022/01/30 10:27:52;;;;;;;;;;;;;;;4.07;100.00;97262.94;1574623;89;26097;-85
2022/01/30 10:30:20;;;;;;;;;;;;;;;4.13;100.00;97265.61;1565432;91;24424;-85
2022/01/30 10:32:55;;;;;;;;;;;;;;;4.17;100.00;97255.42;1566904;90;20230;-84
2022/01/30 10:35:22;;;;;;;;;;;;;;;4.21;100.00;97243.93;1567190;91;25035;-85
2022/01/30 10:45:10;;;;;;;;;;;;;;;4.36;100.00;97268.88;1721275;82;20330;-85
2022/01/30 10:47:37;;;;;;;;;;;;;;;4.38;100.00;97272.18;1725559;81;22029;-85
2022/01/30 10:50:17;;;;;;;;;;;;;;;4.39;100.00;97276.91;1729624;81;25971;-85
2022/01/30 10:52:50;;;;;;;;;;;;;;;4.37;100.00;97288.64;1697698;82;25372;-86
2022/01/30 10:55:16;;;;;;;;;;;;;;;4.34;100.00;97248.70;1712602;83;20207;-85
2022/01/30 10:57:44;;;;;;;;;;;;;;;4.31;100.00;97277.38;1714760;82;24035;-85
2022/01/30 11:00:12;;;;;;;;;;;;;;;4.26;100.00;97266.48;1695219;83;22095;-89
2022/01/30 11:02:39;;;;;;;;;;;;;;;4.25;100.00;97270.48;1731223;81;25969;-89
2022/01/30 11:05:09;;;;;;;;;;;;;;;4.23;100.00;97274.45;1690726;84;24450;-88
2022/01/30 11:07:37;;;;;;;;;;;;;;;4.22;100.00;97276.67;1705067;83;20159;-88
2022/01/30 11:10:14;;;;;;;;;;;;;;;4.23;100.00;97278.80;1689539;84;24562;-89
2022/01/30 11:12:56;;;;;;;;;;;;;;;4.19;100.00;97263.47;1700296;82;22027;-85
2022/01/30 11:15:19;;;;;;;;;;;;;;;4.17;100.00;97274.38;1691563;82;26031;-85
2022/01/30 11:17:44;;;;;;;;;;;;;;;4.17;100.00;97270.95;1703645;83;24859;-86
2022/01/30 11:20:13;;;;;;;;;;;;;;;4.17;100.00;97270.95;1704256;83;20171;-85
2022/01/30 11:22:41;;;;;;;;;;;;;;;4.17;100.00;97280.84;1699551;82;24391;-84
2022/01/30 11:25:12;;;;;;;;;;;;;;;4.20;100.00;97280.64;1716287;81;22142;-84
2022/01/30 11:27:40;;;;;;;;;;;;;;;4.20;100.00;97270.28;1724951;82;26022;-84
2022/01/30 11:30:08;;;;;;;;;;;;;;;4.26;100.00;97283.77;1719448;82;24489;-84
2022/01/30 11:32:34;;;;;;;;;;;;;;;4.26;100.00;97285.06;1708620;82;20506;-85
2022/01/30 11:35:00;;;;;;;;;;;;;;;4.26;100.00;97274.70;1703436;83;24382;-83
2022/01/30 11:37:33;;;;;;;;;;;;;;;4.29;100.00;97288.77;1705422;82;22930;-87
2022/01/30 11:40:00;;;;;;;;;;;;;;;4.30;100.00;97293.03;1726217;82;25965;-87
2022/01/30 11:42:27;;;;;;;;;;;;;;;4.29;100.00;97296.08;1713431;83;24422;-88
2022/01/30 11:44:59;;;;;;;;;;;;;;;4.32;100.00;97279.05;1716285;83;20255;-88
2022/01/30 11:47:25;;;;;;;;;;;;;;;4.35;100.00;97284.05;1716264;83;25049;-88
2022/01/30 11:49:55;;;;;;;;;;;;;;;4.39;100.00;97295.03;1705138;82;21936;-88
2022/01/30 11:52:22;;;;;;;;;;;;;;;4.37;100.00;97296.41;1717002;82;26108;-87
2022/01/30 11:55:01;;;;;;;;;;;;;;;4.42;100.00;97284.00;1717146;83;24486;-87
2022/01/30 11:57:29;;;;;;;;;;;;;;;4.49;100.00;97291.76;1722091;81;20511;-87
2022/01/30 11:59:56;;;;;;;;;;;;;;;4.55;100.00;97278.42;1718723;82;24291;-86
2022/01/30 12:02:35;;;;;;;;;;;;;;;4.59;100.00;97278.58;1721916;83;21946;-88
2022/01/30 12:05:06;;;;;;;;;;;;;;;4.65;100.00;97291.61;1723564;82;26064;-88
2022/01/30 12:07:40;;;;;;;;;;;;;;;4.69;100.00;97285.28;1705516;83;24532;-87
2022/01/30 12:10:24;;;;;;;;;;;;;;;4.71;99.52;97295.56;1699531;83;20277;-87
2022/01/30 12:12:55;;;;;;;;;;;;;;;4.75;98.91;97302.20;1696254;83;24307;-87
2022/01/30 12:15:37;;;;;;;;;;;;;;;4.76;98.33;97302.57;1725741;81;21961;-84
2022/01/30 12:18:05;;;;;;;;;;;;;;;4.75;97.76;97299.61;1720098;81;25971;-84
2022/01/30 12:20:33;;;;;;;;;;;;;;;4.71;97.12;97295.10;1724125;81;24570;-87
2022/01/30 12:23:01;;;;;;;;;;;;;;;4.72;96.50;97288.99;1710492;83;20212;-88
2022/01/30 12:25:34;;;;;;;;;;;;;;;4.74;95.93;97301.86;1709411;83;24323;-86
2022/01/30 12:28:01;;;;;;;;;;;;;;;4.74;95.42;97302.69;1724767;81;21441;-87
2022/01/30 12:30:41;;;;;;;;;;;;;;;4.74;94.95;97300.10;1722171;82;26031;-87
2022/01/30 12:33:26;;;;;;;;;;;;;;;4.73;94.48;97313.98;1723184;83;25452;-87
2022/01/30 12:35:56;;;;;;;;;;;;;;;4.71;94.00;97309.81;1718435;83;20258;-88
2022/01/30 12:38:23;;;;;;;;;;;;;;;4.72;93.54;97320.55;1714819;83;24515;-88
2022/01/30 12:40:49;;;;;;;;;;;;;;;4.69;93.18;97332.42;1719411;83;22658;-84
2022/01/30 12:43:18;;;;;;;;;;;;;;;4.65;92.82;97334.36;1686123;83;26580;-84
2022/01/30 12:45:44;;;;;;;;;;;;;;;4.63;92.51;97305.98;1697200;82;25553;-89
2022/01/30 12:48:12;;;;;;;;;;;;;;;4.63;92.21;97345.30;1706081;83;20232;-89
2022/01/30 12:50:50;;;;;;;;;;;;;;;4.60;91.96;97351.50;1707081;83;24433;-89
2022/01/30 12:53:15;;;;;;;;;;;;;;;4.58;91.66;97320.16;1678879;84;22777;-88
2022/01/30 12:55:41;;;;;;;;;;;;;;;4.58;91.42;97345.57;1684710;84;25953;-84
2022/01/30 12:58:07;;;;;;;;;;;;;;;4.58;91.22;97345.57;1693411;84;24427;-84
2022/01/30 13:00:34;;;;;;;;;;;;;;;4.56;91.08;97334.95;1696462;84;20232;-84
2022/01/30 13:03:01;;;;;;;;;;;;;;;4.57;90.89;97347.81;1715257;82;24371;-89
2022/01/30 13:05:29;;;;;;;;;;;;;;;4.57;90.76;97355.59;1698302;82;21961;-89
2022/01/30 13:07:56;;;;;;;;;;;;;;;4.54;90.57;97363.54;1717189;82;26223;-89
2022/01/30 13:10:23;;;;;;;;;;;;;;;4.50;90.36;97362.08;1719384;82;24684;-88
2022/01/30 13:12:50;;;;;;;;;;;;;;;4.48;90.20;97382.05;1718292;82;20526;-88
2022/01/30 13:15:22;;;;;;;;;;;;;;;4.47;90.08;97381.67;1717856;82;24440;-89
2022/01/30 13:17:49;;;;;;;;;;;;;;;4.46;89.99;97389.11;1709409;82;22056;-86
2022/01/30 13:20:23;;;;;;;;;;;;;;;4.42;89.93;97386.80;1716127;82;26001;-86
2022/01/30 13:22:50;;;;;;;;;;;;;;;4.37;89.90;97394.84;1718095;82;24544;-86
2022/01/30 13:25:18;;;;;;;;;;;;;;;4.35;89.87;97389.39;1719983;82;20192;-86
2022/01/30 13:27:46;;;;;;;;;;;;;;;4.30;89.92;97392.27;1715714;82;24469;-86
2022/01/30 13:30:14;;;;;;;;;;;;;;;4.27;89.92;97378.20;1709891;82;22251;-87
2022/01/30 13:32:40;;;;;;;;;;;;;;;4.26;89.92;97374.41;1717943;82;26052;-87